Time;durP1;ratioP1;P1;durP2;ratioP2;P2;SDS_P1;SDS_P2;PMS_P1;PMS_P2;Temp;Humidity;BMP_temperature;BMP_pressure;BME280_temperature;BME280_humidity;BME280_pressure;Samples;Min_cycle;Max_cycle;Signal;HPM_P1;HPM_P2
2023/08/01 00:01:15;;;;;;;6.72;3.25;;;;;;;;;;6273197;22;20180;-92
2023/08/01 00:04:20;;;;;;;5.43;3.42;;;;;;;;;;6272900;22;20213;-93
2023/08/01 00:07:25;;;;;;;7.32;3.60;;;;;;;;;;6273500;22;20652;-94
2023/08/01 00:10:32;;;;;;;8.27;3.22;;;;;;;;;;6278507;22;20265;-92
2023/08/01 00:13:39;;;;;;;11.23;3.90;;;;;;;;;;6276108;22;20356;-92
2023/08/01 00:16:44;;;;;;;6.47;3.13;;;;;;;;;;6271885;22;20216;-92
2023/08/01 00:19:49;;;;;;;8.38;3.50;;;;;;;;;;6270817;22;20216;-94
2023/08/01 00:22:54;;;;;;;8.20;3.40;;;;;;;;;;6272309;22;20193;-93
2023/08/01 00:25:59;;;;;;;9.18;4.25;;;;;;;;;;6270012;22;20170;-93
2023/08/01 00:29:05;;;;;;;10.43;3.60;;;;;;;;;;6269772;22;20486;-92
2023/08/01 00:35:55;;;;;;;12.13;4.57;;;;;;;;;;6269672;22;20169;-94
2023/08/01 00:38:59;;;;;;;7.30;3.90;;;;;;;;;;6269190;22;20639;-94
2023/08/01 00:42:04;;;;;;;6.05;3.60;;;;;;;;;;6270041;22;20213;-94
2023/08/01 00:45:12;;;;;;;11.85;4.25;;;;;;;;;;6269218;22;20173;-93
2023/08/01 00:48:18;;;;;;;10.77;4.18;;;;;;;;;;6270308;22;20158;-93
2023/08/01 00:51:23;;;;;;;12.10;3.85;;;;;;;;;;6270083;22;20241;-93
2023/08/01 00:54:35;;;;;;;12.30;4.28;;;;;;;;;;6271162;22;20166;-94
2023/08/01 00:57:44;;;;;;;11.90;4.20;;;;;;;;;;6271621;22;20165;-93
2023/08/01 01:05:10;;;;;;;14.48;4.00;;;;;;;;;;6289756;22;20158;-94
2023/08/01 01:08:15;;;;;;;7.53;4.60;;;;;;;;;;6271430;22;20228;-93
2023/08/01 01:11:20;;;;;;;12.52;4.07;;;;;;;;;;6269834;22;20519;-93
2023/08/01 01:14:25;;;;;;;7.57;3.70;;;;;;;;;;6269904;22;20220;-94
2023/08/01 01:17:30;;;;;;;11.20;4.38;;;;;;;;;;6269309;22;20165;-94
2023/08/01 01:20:37;;;;;;;10.15;3.75;;;;;;;;;;6269407;22;20166;-94
2023/08/01 01:23:43;;;;;;;10.90;4.70;;;;;;;;;;6270097;22;20165;-93
2023/08/01 01:26:49;;;;;;;8.00;4.30;;;;;;;;;;6268294;22;20209;-93
2023/08/01 01:29:56;;;;;;;10.52;4.15;;;;;;;;;;6269318;22;20153;-93
2023/08/01 01:37:21;;;;;;;11.15;3.97;;;;;;;;;;6288296;22;20126;-95
2023/08/01 01:40:26;;;;;;;8.88;4.57;;;;;;;;;;6268997;22;20281;-93
2023/08/01 01:43:31;;;;;;;12.57;4.43;;;;;;;;;;6268592;22;20166;-94
2023/08/01 01:46:36;;;;;;;10.70;4.03;;;;;;;;;;6269066;22;20238;-94
2023/08/01 01:49:42;;;;;;;9.13;4.10;;;;;;;;;;6270708;22;20675;-94
2023/08/01 01:52:49;;;;;;;7.53;3.72;;;;;;;;;;6270933;22;20150;-95
2023/08/01 01:55:58;;;;;;;7.22;3.90;;;;;;;;;;6269967;22;20166;-94
2023/08/01 01:59:03;;;;;;;9.98;3.92;;;;;;;;;;6271896;22;20216;-92
2023/08/01 02:02:12;;;;;;;8.50;4.45;;;;;;;;;;6271286;22;20165;-94
2023/08/01 02:05:17;;;;;;;13.73;3.75;;;;;;;;;;6269921;22;20165;-94
2023/08/01 02:08:24;;;;;;;6.07;3.78;;;;;;;;;;6271862;22;20181;-93
2023/08/01 02:11:29;;;;;;;7.65;3.70;;;;;;;;;;6272632;22;20194;-94
2023/08/01 02:14:34;;;;;;;9.27;4.00;;;;;;;;;;6271919;22;20161;-94
2023/08/01 02:17:39;;;;;;;8.60;4.40;;;;;;;;;;6271464;22;20165;-94
2023/08/01 02:20:44;;;;;;;8.40;3.95;;;;;;;;;;6270542;22;20193;-95
2023/08/01 02:23:51;;;;;;;7.95;4.43;;;;;;;;;;6270403;22;20193;-94
2023/08/01 02:26:56;;;;;;;7.15;3.97;;;;;;;;;;6274064;22;20555;-93
2023/08/01 02:30:01;;;;;;;8.68;3.90;;;;;;;;;;6272348;22;20162;-93
2023/08/01 02:37:27;;;;;;;10.77;4.30;;;;;;;;;;6289505;22;20243;-94
2023/08/01 02:40:34;;;;;;;10.35;4.38;;;;;;;;;;6270518;22;20193;-94
2023/08/01 02:43:39;;;;;;;11.30;4.20;;;;;;;;;;6271646;22;20226;-93
2023/08/01 02:46:44;;;;;;;6.28;3.95;;;;;;;;;;6270395;22;20248;-94
2023/08/01 02:49:49;;;;;;;6.95;4.10;;;;;;;;;;6270344;22;20170;-94
2023/08/01 02:52:55;;;;;;;9.57;3.88;;;;;;;;;;6270855;22;20169;-94
2023/08/01 02:56:01;;;;;;;12.15;4.30;;;;;;;;;;6269772;22;20212;-93
2023/08/01 02:59:06;;;;;;;7.25;3.78;;;;;;;;;;6268669;22;20161;-94
2023/08/01 03:02:11;;;;;;;10.65;4.40;;;;;;;;;;6270022;22;20624;-95
2023/08/01 03:05:16;;;;;;;8.82;4.38;;;;;;;;;;6271401;22;20165;-94
2023/08/01 03:08:22;;;;;;;10.93;4.18;;;;;;;;;;6269805;22;20329;-94
2023/08/01 03:11:30;;;;;;;10.23;4.60;;;;;;;;;;6271057;22;20260;-94
2023/08/01 03:14:36;;;;;;;13.90;3.78;;;;;;;;;;6275317;22;20173;-93
2023/08/01 03:17:41;;;;;;;8.43;4.20;;;;;;;;;;6271555;22;20154;-93
2023/08/01 03:20:47;;;;;;;9.07;4.10;;;;;;;;;;6270945;22;20166;-92
2023/08/01 03:23:52;;;;;;;10.00;4.13;;;;;;;;;;6273393;22;20174;-92
2023/08/01 03:26:59;;;;;;;7.68;4.03;;;;;;;;;;6272324;22;20157;-93
2023/08/01 03:30:04;;;;;;;8.65;3.58;;;;;;;;;;6270552;22;20251;-93
2023/08/01 03:33:09;;;;;;;12.18;4.15;;;;;;;;;;6270673;22;20170;-94
2023/08/01 03:36:15;;;;;;;11.70;3.60;;;;;;;;;;6271428;22;20174;-94
2023/08/01 03:39:20;;;;;;;8.40;4.07;;;;;;;;;;6269276;22;20208;-92
2023/08/01 03:42:26;;;;;;;9.13;3.67;;;;;;;;;;6271153;22;20237;-93
2023/08/01 03:45:31;;;;;;;8.55;3.80;;;;;;;;;;6270416;22;20158;-94
2023/08/01 03:48:36;;;;;;;13.93;4.43;;;;;;;;;;6272780;22;20178;-93
2023/08/01 03:51:41;;;;;;;9.40;4.10;;;;;;;;;;6272540;22;20523;-94
2023/08/01 09:54:08;;;;;;;8.07;3.40;;;;;;;;;;6262152;22;20661;-91
2023/08/01 09:57:16;;;;;;;8.80;3.80;;;;;;;;;;6273355;22;20174;-89
2023/08/01 10:00:22;;;;;;;7.25;3.42;;;;;;;;;;6278721;22;20169;-91
2023/08/01 10:03:28;;;;;;;8.45;3.58;;;;;;;;;;6277045;22;20181;-89
2023/08/01 10:06:35;;;;;;;10.88;4.03;;;;;;;;;;6276096;22;20216;-91
2023/08/01 10:09:43;;;;;;;5.43;3.47;;;;;;;;;;6274377;22;20162;-92
2023/08/01 10:12:49;;;;;;;6.88;3.53;;;;;;;;;;6274359;22;20196;-90
2023/08/01 10:15:54;;;;;;;9.43;3.88;;;;;;;;;;6272838;22;20165;-91
2023/08/01 10:19:00;;;;;;;6.88;3.90;;;;;;;;;;6272876;22;20238;-91
2023/08/01 10:22:07;;;;;;;6.70;3.70;;;;;;;;;;6272832;22;20173;-91
2023/08/01 10:25:14;;;;;;;8.23;3.70;;;;;;;;;;6272298;22;20166;-91
2023/08/01 10:28:19;;;;;;;6.80;3.80;;;;;;;;;;6271185;22;20170;-89
2023/08/01 10:31:25;;;;;;;10.90;3.72;;;;;;;;;;6274355;22;20289;-92
2023/08/01 10:34:56;;;;;;;8.13;4.85;;;;;;;;;;6273108;22;20157;-91
2023/08/01 10:38:10;;;;;;;7.60;3.88;;;;;;;;;;6274269;22;20288;-93
2023/08/01 10:41:24;;;;;;;6.95;4.28;;;;;;;;;;6279805;22;20173;-92
2023/08/01 10:44:31;;;;;;;8.88;3.67;;;;;;;;;;6274218;22;20168;-92
2023/08/01 10:47:37;;;;;;;6.75;3.70;;;;;;;;;;6273343;22;20177;-91
2023/08/01 10:50:43;;;;;;;6.63;3.20;;;;;;;;;;6274087;22;20220;-91
2023/08/01 10:53:48;;;;;;;6.05;3.60;;;;;;;;;;6272267;22;20530;-92
2023/08/01 10:56:58;;;;;;;5.68;3.63;;;;;;;;;;6272479;22;20280;-92
2023/08/01 11:00:22;;;;;;;6.30;3.47;;;;;;;;;;6273772;22;20166;-89
2023/08/01 11:03:35;;;;;;;6.20;3.75;;;;;;;;;;6274877;22;20169;-90
2023/08/01 11:06:46;;;;;;;8.40;3.83;;;;;;;;;;6274148;22;20253;-93
2023/08/01 11:10:03;;;;;;;9.07;3.88;;;;;;;;;;6277471;22;20169;-92
2023/08/01 11:13:14;;;;;;;15.77;4.82;;;;;;;;;;6277582;22;20181;-91
2023/08/01 11:16:24;;;;;;;6.90;3.75;;;;;;;;;;6279333;22;20161;-91
2023/08/01 11:19:30;;;;;;;10.70;4.32;;;;;;;;;;6279040;22;20157;-92
2023/08/01 11:22:36;;;;;;;12.27;3.97;;;;;;;;;;6274614;22;20165;-92
2023/08/01 11:25:43;;;;;;;8.65;3.75;;;;;;;;;;6273688;22;20169;-92
2023/08/01 11:28:51;;;;;;;8.75;4.20;;;;;;;;;;6279733;22;20170;-92
2023/08/01 11:31:57;;;;;;;7.97;4.15;;;;;;;;;;6277413;22;20197;-93
2023/08/01 11:39:24;;;;;;;1.55;0.93;;;;;;;;;;6291405;22;20166;-93
2023/08/01 11:42:33;;;;;;;1.10;0.93;;;;;;;;;;6273649;22;20252;-91
2023/08/01 11:45:49;;;;;;;0.47;0.47;;;;;;;;;;6275852;22;20209;-91
2023/08/01 11:48:57;;;;;;;0.65;0.65;;;;;;;;;;6276348;22;20166;-92
2023/08/01 16:56:56;;;;;;;6.28;2.35;;;;;;;;;;6237512;22;20214;-91
2023/08/01 17:00:04;;;;;;;6.65;1.80;;;;;;;;;;6285484;22;20162;-92
2023/08/01 17:03:12;;;;;;;7.05;2.00;;;;;;;;;;6302588;22;20174;-89
2023/08/01 19:28:24;;;;;;;2.95;1.83;;;;;;;;;;6264635;22;20238;-90
2023/08/01 19:31:33;;;;;;;2.55;1.50;;;;;;;;;;6283351;22;20161;-90
2023/08/01 19:38:58;;;;;;;22.15;9.38;;;;;;;;;;6301654;22;20181;-88
2023/08/01 19:42:09;;;;;;;5.00;1.75;;;;;;;;;;6301448;22;20628;-88
2023/08/01 19:45:31;;;;;;;2.70;1.75;;;;;;;;;;6283378;22;20165;-89
2023/08/01 19:48:36;;;;;;;4.43;1.73;;;;;;;;;;6281653;22;20193;-91
2023/08/01 19:51:42;;;;;;;3.67;1.70;;;;;;;;;;6278763;22;20170;-92
2023/08/01 19:54:49;;;;;;;4.45;1.48;;;;;;;;;;6280259;22;20162;-90
2023/08/01 19:57:59;;;;;;;4.50;1.70;;;;;;;;;;6281668;22;20165;-91
2023/08/01 20:04:45;;;;;;;3.85;1.60;;;;;;;;;;6284876;22;20189;-88
